Time;durP1;ratioP1;P1;durP2;ratioP2;P2;SDS_P1;SDS_P2;PMS_P1;PMS_P2;Temp;Humidity;BMP_temperature;BMP_pressure;BME280_temperature;BME280_humidity;BME280_pressure;Samples;Min_cycle;Max_cycle;Signal;HPM_P1;HPM_P2
2022/01/22 00:00:11;;;;;;;15.02;3.15;;;7.00;93.30;;;;;;5128915;28;20047;-80
2022/01/22 00:02:37;;;;;;;11.70;3.50;;;7.00;93.30;;;;;;5112194;28;20053;-80
2022/01/22 00:05:05;;;;;;;13.95;2.40;;;7.00;93.30;;;;;;5095127;28;20052;-80
2022/01/22 00:07:31;;;;;;;16.05;3.10;;;7.00;93.30;;;;;;5112140;28;20391;-80
2022/01/22 00:10:05;;;;;;;14.20;2.90;;;7.00;93.20;;;;;;5111966;28;20093;-80
2022/01/22 00:14:56;;;;;;;15.95;3.33;;;7.00;93.30;;;;;;5095114;28;20047;-80
2022/01/22 00:17:22;;;;;;;15.05;3.13;;;6.90;93.30;;;;;;5129147;28;20068;-79
2022/01/22 00:19:47;;;;;;;17.30;3.28;;;7.00;93.40;;;;;;5078181;28;20408;-80
2022/01/22 00:22:13;;;;;;;16.05;3.22;;;7.00;93.40;;;;;;5131205;27;20035;-79
2022/01/22 00:24:40;;;;;;;15.93;3.28;;;6.90;93.40;;;;;;5116362;28;20043;-80
2022/01/22 00:27:06;;;;;;;14.45;3.13;;;6.90;93.40;;;;;;5099293;28;20372;-80
2022/01/22 00:29:50;;;;;;;17.67;3.10;;;6.90;93.60;;;;;;5115877;28;20035;-80
2022/01/22 00:32:16;;;;;;;18.23;3.08;;;6.90;93.60;;;;;;5101642;28;20039;-80
2022/01/22 00:34:42;;;;;;;15.02;3.22;;;7.00;93.60;;;;;;5115815;28;20047;-80
2022/01/22 00:37:08;;;;;;;17.13;2.80;;;6.90;93.70;;;;;;5082055;28;20036;-79
2022/01/22 00:39:35;;;;;;;12.23;2.35;;;6.90;93.80;;;;;;5133029;27;20043;-79
2022/01/22 00:42:10;;;;;;;17.83;3.25;;;6.90;93.80;;;;;;5098971;28;20507;-80
2022/01/22 00:44:36;;;;;;;18.67;4.05;;;7.00;93.80;;;;;;5115729;28;20039;-80
2022/01/22 00:47:02;;;;;;;13.32;2.50;;;6.90;94.00;;;;;;5132749;27;20039;-80
2022/01/22 00:49:29;;;;;;;19.23;2.92;;;6.90;94.00;;;;;;5098548;28;20749;-80
2022/01/22 00:51:55;;;;;;;13.40;2.85;;;6.90;94.20;;;;;;5115552;28;20507;-80
2022/01/22 00:54:21;;;;;;;14.65;3.05;;;6.90;94.30;;;;;;5098507;28;20036;-80
2022/01/22 00:56:47;;;;;;;20.08;4.28;;;6.90;94.30;;;;;;5098469;28;20032;-80
2022/01/22 00:59:12;;;;;;;12.85;2.97;;;6.90;94.40;;;;;;5132504;27;20425;-80
2022/01/22 01:01:38;;;;;;;18.80;3.10;;;7.00;94.30;;;;;;5132215;27;20054;-80
2022/01/22 01:04:07;;;;;;;11.38;2.25;;;6.90;94.40;;;;;;5081524;28;20038;-80
2022/01/22 01:06:33;;;;;;;11.82;3.45;;;6.90;94.50;;;;;;5115295;28;20036;-80
2022/01/22 01:09:00;;;;;;;14.65;2.72;;;7.00;94.40;;;;;;5132289;27;20038;-80
2022/01/22 01:11:28;;;;;;;15.73;3.58;;;6.90;94.50;;;;;;5132333;27;20101;-80
2022/01/22 01:13:58;;;;;;;12.93;2.05;;;6.90;94.60;;;;;;5115367;28;20365;-80
2022/01/22 01:35:16;;;;;;;10.80;1.75;;;6.80;95.20;;;;;;5098422;28;20126;-80
2022/01/22 01:37:42;;;;;;;14.18;2.42;;;6.80;95.00;;;;;;5114628;28;20523;-80
2022/01/22 01:40:10;;;;;;;9.93;2.00;;;6.80;95.10;;;;;;5131642;27;20047;-80
2022/01/22 01:42:46;;;;;;;13.88;2.72;;;6.70;95.20;;;;;;5097575;28;20038;-80
2022/01/22 01:45:11;;;;;;;13.93;1.70;;;6.70;95.50;;;;;;5131966;27;20045;-81
2022/01/22 01:47:40;;;;;;;11.93;2.67;;;6.70;95.50;;;;;;5114435;28;20039;-80
2022/01/22 01:50:07;;;;;;;9.20;1.40;;;6.70;95.50;;;;;;5114636;28;20039;-80
2022/01/22 01:52:51;;;;;;;11.38;1.58;;;6.70;95.70;;;;;;5097816;28;20051;-81
2022/01/22 01:55:21;;;;;;;12.57;1.70;;;6.60;95.70;;;;;;5097592;28;20039;-80
2022/01/22 01:57:48;;;;;;;9.25;1.38;;;6.60;95.80;;;;;;5114278;28;20525;-80
2022/01/22 02:00:18;;;;;;;10.60;1.60;;;6.60;95.90;;;;;;5113811;28;20052;-79
2022/01/22 02:02:45;;;;;;;11.75;1.75;;;6.60;96.00;;;;;;5131436;27;20079;-80
2022/01/22 02:05:12;;;;;;;7.35;1.38;;;6.60;96.10;;;;;;5114456;28;20028;-80
2022/01/22 02:07:42;;;;;;;5.13;1.02;;;6.50;96.10;;;;;;5097376;28;20042;-80
2022/01/22 02:10:09;;;;;;;7.03;1.33;;;6.60;96.10;;;;;;5114282;28;20086;-79
2022/01/22 02:23:46;;;;;;;8.80;1.67;;;6.60;96.00;;;;;;5113850;28;20475;-80
2022/01/22 02:26:14;;;;;;;8.82;2.38;;;6.60;96.20;;;;;;5113713;28;20491;-80
2022/01/22 02:28:41;;;;;;;8.82;1.60;;;6.60;96.20;;;;;;5080101;28;20035;-79
2022/01/22 02:34:44;;;;;;;7.50;1.23;;;6.50;96.40;;;;;;5113833;28;20137;-79
2022/01/22 02:39:25;;;;;;;10.65;1.38;;;6.60;96.30;;;;;;5113779;28;20134;-79
2022/01/22 02:41:52;;;;;;;9.80;1.40;;;6.60;96.30;;;;;;5130572;27;20047;-79
2022/01/22 02:44:35;;;;;;;8.00;1.67;;;6.60;96.40;;;;;;5129696;27;20035;-80
2022/01/22 02:47:05;;;;;;;8.77;1.83;;;6.60;96.50;;;;;;5113378;28;20039;-80
2022/01/22 02:49:31;;;;;;;9.80;1.67;;;6.60;96.50;;;;;;5097010;28;20059;-80
2022/01/22 02:52:03;;;;;;;9.88;2.10;;;6.60;96.50;;;;;;5096583;28;20036;-80
2022/01/22 02:54:29;;;;;;;8.50;1.20;;;6.60;96.60;;;;;;5113385;28;20388;-80
2022/01/22 02:56:55;;;;;;;4.57;1.00;;;6.60;96.60;;;;;;5096246;28;20042;-80
2022/01/22 02:59:22;;;;;;;5.47;1.25;;;6.50;96.70;;;;;;5096055;28;20036;-80
2022/01/22 03:01:49;;;;;;;7.20;1.17;;;6.60;96.90;;;;;;5129950;27;20093;-80
2022/01/22 03:04:14;;;;;;;9.23;2.78;;;6.50;96.80;;;;;;5096054;28;20039;-80
2022/01/22 03:06:40;;;;;;;9.88;2.28;;;6.50;96.90;;;;;;5129968;27;20063;-80
2022/01/22 03:09:09;;;;;;;8.18;1.45;;;6.50;97.00;;;;;;5129927;27;20069;-80
2022/01/22 03:11:43;;;;;;;6.25;1.60;;;6.50;96.90;;;;;;5130256;27;20053;-79
2022/01/22 03:27:36;;;;;;;8.18;1.20;;;6.50;97.10;;;;;;5098102;28;20507;-79
2022/01/22 03:30:03;;;;;;;9.15;1.27;;;6.50;97.10;;;;;;5095756;28;20035;-80
2022/01/22 03:32:31;;;;;;;7.45;1.55;;;6.50;97.10;;;;;;5095434;28;20047;-79
2022/01/22 03:35:09;;;;;;;5.40;1.55;;;6.50;97.10;;;;;;5095516;28;20039;-80
2022/01/22 03:37:36;;;;;;;8.60;1.98;;;6.40;97.20;;;;;;5129612;27;20043;-80
2022/01/22 03:40:03;;;;;;;17.40;2.25;;;6.50;97.30;;;;;;5112382;28;20093;-79
2022/01/22 03:42:29;;;;;;;7.55;1.73;;;6.50;97.20;;;;;;5129503;27;20036;-80
2022/01/22 03:44:54;;;;;;;9.68;1.50;;;6.50;97.20;;;;;;5129489;27;20092;-79
2022/01/22 03:47:20;;;;;;;11.35;1.77;;;6.40;97.20;;;;;;5095329;28;20040;-79
2022/01/22 03:49:46;;;;;;;11.45;1.90;;;6.40;97.20;;;;;;5095286;28;20042;-80
2022/01/22 03:52:12;;;;;;;10.20;2.05;;;6.40;97.20;;;;;;5112254;28;20088;-79
2022/01/22 03:54:38;;;;;;;12.80;2.53;;;6.40;97.20;;;;;;5112210;28;20050;-79
2022/01/22 03:57:04;;;;;;;12.43;2.33;;;6.40;97.30;;;;;;5112090;28;20040;-80
2022/01/22 03:59:30;;;;;;;10.13;1.40;;;6.40;97.20;;;;;;5095047;28;20518;-79
2022/01/22 04:02:36;;;;;;;14.63;2.33;;;6.40;97.10;;;;;;5075072;28;20059;-79
2022/01/22 04:04:53;;;;;;;8.23;1.80;;;6.40;97.10;;;;;;5091925;28;20047;-80
2022/01/22 04:10:06;;;;;;;7.43;1.40;;;6.30;97.10;;;;;;5091960;28;20082;-80
2022/01/22 04:12:45;;;;;;;8.07;1.73;;;6.30;97.10;;;;;;5075126;28;20425;-80
2022/01/22 04:15:13;;;;;;;6.25;1.30;;;6.40;97.30;;;;;;5077002;28;20043;-80
2022/01/22 04:24:50;;;;;;;9.57;1.45;;;6.40;97.20;;;;;;5074780;28;20044;-80
2022/01/22 04:28:43;;;;;;;8.00;1.50;;;6.40;96.90;;;;;;5091779;28;20054;-80
2022/01/22 04:31:09;;;;;;;13.70;2.25;;;6.40;97.00;;;;;;5091852;28;20036;-80
2022/01/22 04:33:35;;;;;;;7.88;1.70;;;6.40;97.00;;;;;;5058420;28;20395;-80
2022/01/22 04:36:00;;;;;;;6.55;1.27;;;6.40;97.10;;;;;;5074643;28;20048;-80
2022/01/22 04:38:26;;;;;;;7.57;1.20;;;6.40;97.20;;;;;;5074693;28;20128;-80
2022/01/22 04:40:52;;;;;;;5.93;1.10;;;6.40;97.10;;;;;;5091266;28;20118;-80
2022/01/22 04:43:18;;;;;;;10.40;2.30;;;6.40;97.10;;;;;;5091762;28;20074;-79
2022/01/22 04:45:54;;;;;;;11.52;1.73;;;6.40;97.10;;;;;;5091406;28;20044;-80
2022/01/22 04:56:17;;;;;;;13.80;2.33;;;6.40;97.10;;;;;;5077062;28;20091;-80
2022/01/22 04:58:42;;;;;;;6.85;1.60;;;6.50;97.20;;;;;;5108235;28;20076;-81
2022/01/22 05:01:08;;;;;;;10.85;1.58;;;6.50;97.20;;;;;;5088000;28;20052;-80
2022/01/22 05:03:34;;;;;;;5.95;1.75;;;6.50;97.10;;;;;;5094781;28;20039;-80
2022/01/22 05:06:00;;;;;;;10.23;1.45;;;6.50;97.10;;;;;;5094564;28;20396;-80
2022/01/22 05:08:26;;;;;;;17.73;1.50;;;6.50;97.10;;;;;;5131159;27;20042;-81
2022/01/22 05:10:52;;;;;;;4.60;1.05;;;6.50;97.20;;;;;;5115456;28;20501;-81
2022/01/22 05:13:17;;;;;;;5.13;0.90;;;6.50;97.20;;;;;;5098331;28;20392;-80
2022/01/22 05:15:43;;;;;;;3.90;0.90;;;6.50;97.10;;;;;;5098235;28;20039;-81
2022/01/22 05:18:09;;;;;;;4.90;1.17;;;6.40;97.20;;;;;;5081211;28;20035;-81
2022/01/22 05:20:45;;;;;;;3.80;1.10;;;6.40;97.30;;;;;;5132182;27;20043;-80
2022/01/22 05:23:18;;;;;;;4.05;1.15;;;6.50;97.20;;;;;;5099457;28;20043;-80
2022/01/22 05:25:50;;;;;;;8.67;1.47;;;6.40;97.20;;;;;;5099168;28;20119;-80
2022/01/22 05:31:07;;;;;;;13.10;3.17;;;6.40;97.20;;;;;;5100388;28;20086;-81
2022/01/22 05:39:09;;;;;;;6.13;1.27;;;6.40;97.30;;;;;;5114567;28;20043;-80
2022/01/22 05:41:37;;;;;;;5.70;0.98;;;6.30;97.20;;;;;;5114632;28;20047;-81
2022/01/22 05:44:03;;;;;;;8.18;1.80;;;6.30;97.20;;;;;;5097582;28;20032;-80
2022/01/22 05:46:28;;;;;;;7.40;1.35;;;6.30;97.20;;;;;;5131946;27;20081;-80
2022/01/22 05:48:54;;;;;;;5.65;1.10;;;6.40;97.20;;;;;;5131868;27;20502;-82
2022/01/22 05:51:20;;;;;;;4.10;0.80;;;6.40;97.10;;;;;;5131538;27;20438;-81
2022/01/22 05:54:12;;;;;;;9.48;1.25;;;6.40;96.90;;;;;;5097438;28;20042;-80
2022/01/22 06:01:59;;;;;;;7.28;1.20;;;6.30;97.10;;;;;;5114062;28;20052;-80
2022/01/22 06:04:25;;;;;;;9.55;1.52;;;6.40;97.00;;;;;;5097269;28;20118;-81
2022/01/22 06:06:51;;;;;;;6.93;1.33;;;6.30;97.00;;;;;;5131327;27;20039;-81
2022/01/22 06:09:16;;;;;;;6.32;1.00;;;6.30;97.00;;;;;;5114093;28;20047;-80
2022/01/22 06:11:55;;;;;;;5.18;0.93;;;6.30;97.10;;;;;;5131384;27;20071;-81
2022/01/22 06:14:21;;;;;;;7.03;0.88;;;6.30;97.00;;;;;;5098854;28;20042;-81
2022/01/22 06:16:47;;;;;;;6.10;0.70;;;6.30;97.00;;;;;;5096962;28;20039;-80
2022/01/22 06:19:13;;;;;;;4.88;0.90;;;6.30;96.70;;;;;;5097074;28;20036;-80
2022/01/22 06:21:38;;;;;;;5.20;1.13;;;6.30;96.50;;;;;;5113773;28;20047;-81
2022/01/22 06:24:05;;;;;;;7.57;0.80;;;6.20;96.50;;;;;;5079937;28;20036;-80
2022/01/22 06:26:30;;;;;;;8.40;1.33;;;6.20;96.50;;;;;;5096814;28;20040;-81
2022/01/22 06:28:56;;;;;;;6.70;1.90;;;6.20;96.50;;;;;;5130734;27;20040;-80
2022/01/22 06:31:22;;;;;;;5.13;1.58;;;6.10;96.70;;;;;;5131016;27;20079;-79
2022/01/22 06:33:47;;;;;;;4.13;0.93;;;6.10;96.70;;;;;;5079722;28;20506;-79
2022/01/22 06:36:13;;;;;;;3.60;0.73;;;6.10;96.80;;;;;;5130981;27;20126;-78
2022/01/22 06:38:39;;;;;;;6.53;1.25;;;6.10;96.70;;;;;;5096527;28;20043;-79
2022/01/22 06:43:48;;;;;;;9.70;1.55;;;6.10;96.80;;;;;;5113449;28;20043;-80
2022/01/22 06:46:14;;;;;;;7.72;1.70;;;6.20;96.80;;;;;;5130484;27;20032;-78
2022/01/22 06:48:40;;;;;;;7.10;1.38;;;6.20;96.60;;;;;;5079504;28;20069;-79
2022/01/22 06:51:06;;;;;;;6.55;1.55;;;6.20;96.60;;;;;;5096245;28;20092;-80
2022/01/22 06:53:36;;;;;;;19.92;3.00;;;6.10;96.60;;;;;;5096366;28;20126;-79
2022/01/22 06:56:04;;;;;;;10.57;1.95;;;6.10;96.70;;;;;;5113137;28;20065;-79
2022/01/22 06:58:30;;;;;;;11.43;1.80;;;6.10;96.80;;;;;;5096149;28;20476;-79
2022/01/22 07:00:55;;;;;;;10.18;1.98;;;6.20;96.90;;;;;;5130241;27;20040;-79
2022/01/22 07:03:22;;;;;;;5.78;2.00;;;6.20;97.00;;;;;;5096365;28;20073;-79
2022/01/22 07:05:47;;;;;;;11.32;1.67;;;6.20;96.90;;;;;;5130370;27;20043;-78
2022/01/22 07:08:13;;;;;;;9.13;2.10;;;6.20;96.80;;;;;;5095974;28;20472;-79
2022/01/22 07:10:39;;;;;;;7.38;1.80;;;6.20;96.80;;;;;;5096025;28;20046;-79
2022/01/22 07:13:05;;;;;;;9.63;1.90;;;6.20;96.70;;;;;;5113120;28;20384;-80
2022/01/22 07:15:32;;;;;;;4.47;1.58;;;6.10;96.70;;;;;;5096117;28;20408;-79
2022/01/22 07:17:58;;;;;;;8.93;2.70;;;6.20;96.80;;;;;;5129920;27;20047;-79
2022/01/22 07:20:28;;;;;;;10.70;3.00;;;6.20;96.70;;;;;;5129947;27;20040;-78
2022/01/22 07:23:14;;;;;;;7.05;2.33;;;6.30;96.60;;;;;;5129814;27;20077;-79
2022/01/22 07:25:40;;;;;;;6.80;1.75;;;6.20;96.50;;;;;;5096023;28;20383;-79
2022/01/22 07:28:06;;;;;;;11.57;2.78;;;6.30;96.50;;;;;;5112876;28;20050;-79
2022/01/22 07:30:32;;;;;;;11.20;2.92;;;6.20;96.40;;;;;;5094992;28;20554;-79
2022/01/22 07:32:58;;;;;;;11.90;2.70;;;6.30;96.40;;;;;;5129669;27;20044;-79
2022/01/22 07:35:23;;;;;;;9.93;2.67;;;6.30;96.40;;;;;;5095769;28;20083;-79
2022/01/22 07:37:49;;;;;;;10.70;2.58;;;6.30;96.10;;;;;;5095414;28;20047;-79
2022/01/22 07:40:16;;;;;;;17.80;2.42;;;6.30;96.10;;;;;;5112148;28;20069;-79
2022/01/22 07:42:42;;;;;;;15.90;4.20;;;6.30;96.10;;;;;;5095266;28;20043;-79
2022/01/22 07:45:09;;;;;;;12.55;3.42;;;6.30;96.00;;;;;;5112024;28;20042;-79
2022/01/22 07:47:35;;;;;;;20.02;2.60;;;6.30;95.90;;;;;;5112419;28;20036;-79
2022/01/22 07:50:02;;;;;;;10.45;2.33;;;6.40;95.80;;;;;;5094976;28;20552;-79
2022/01/22 07:52:28;;;;;;;9.85;1.65;;;6.40;95.80;;;;;;5095075;28;20419;-79
2022/01/22 07:54:54;;;;;;;9.00;1.90;;;6.50;95.70;;;;;;5129041;27;20050;-79
2022/01/22 07:57:20;;;;;;;12.25;2.40;;;6.40;95.60;;;;;;5094908;28;20601;-79
2022/01/22 07:59:45;;;;;;;13.30;1.75;;;6.40;95.60;;;;;;5129343;27;20061;-79
2022/01/22 08:02:13;;;;;;;16.70;2.10;;;6.40;95.70;;;;;;5132682;27;20506;-78
2022/01/22 08:04:39;;;;;;;10.45;1.80;;;6.50;95.50;;;;;;5098600;28;20553;-79
2022/01/22 08:07:05;;;;;;;13.98;3.92;;;6.50;95.50;;;;;;5132618;28;20114;-79
2022/01/22 08:09:32;;;;;;;8.73;1.60;;;6.40;95.60;;;;;;5098455;28;20089;-78
2022/01/22 08:11:59;;;;;;;8.32;2.63;;;6.40;95.60;;;;;;5115476;28;20035;-79
2022/01/22 08:14:25;;;;;;;9.93;1.85;;;6.40;95.60;;;;;;5132876;28;20403;-80
2022/01/22 08:16:50;;;;;;;10.68;1.73;;;6.40;95.70;;;;;;5132815;28;20039;-79
2022/01/22 08:19:17;;;;;;;9.70;2.20;;;6.30;95.70;;;;;;5097995;28;20487;-79
2022/01/22 08:21:44;;;;;;;12.93;2.13;;;6.40;95.70;;;;;;5115526;28;20035;-78
2022/01/22 08:24:11;;;;;;;11.88;2.60;;;6.40;95.80;;;;;;5098655;28;20396;-79
2022/01/22 08:26:42;;;;;;;15.00;2.85;;;6.40;95.70;;;;;;5115650;28;20039;-79
2022/01/22 08:29:09;;;;;;;12.63;2.42;;;6.40;95.50;;;;;;5115545;28;20395;-79
2022/01/22 08:36:47;;;;;;;11.35;2.85;;;6.40;95.60;;;;;;5115215;28;20058;-79
2022/01/22 08:39:17;;;;;;;17.35;3.20;;;6.50;95.40;;;;;;5115203;28;20050;-78
2022/01/22 08:41:43;;;;;;;7.53;2.15;;;6.40;95.30;;;;;;5115303;28;20035;-79
2022/01/22 08:44:10;;;;;;;12.15;1.92;;;6.40;95.20;;;;;;5101894;27;20043;-78
2022/01/22 08:46:37;;;;;;;9.32;2.03;;;6.50;95.20;;;;;;5101991;27;20046;-79
2022/01/22 08:49:07;;;;;;;8.18;2.20;;;6.50;95.00;;;;;;5101927;27;20475;-79
2022/01/22 08:51:34;;;;;;;4.78;1.65;;;6.50;94.90;;;;;;5102039;27;20559;-79
2022/01/22 08:54:01;;;;;;;10.75;3.15;;;6.50;94.60;;;;;;5119200;27;20050;-78
2022/01/22 08:56:28;;;;;;;9.57;2.30;;;6.50;94.50;;;;;;5119210;27;20062;-78
2022/01/22 08:58:54;;;;;;;9.48;2.28;;;6.60;94.50;;;;;;5118907;27;20115;-78
2022/01/22 09:01:20;;;;;;;6.43;2.08;;;6.60;94.50;;;;;;5101777;27;20074;-79
2022/01/22 09:03:46;;;;;;;10.93;2.13;;;6.60;94.40;;;;;;5101990;27;20035;-78
2022/01/22 09:06:12;;;;;;;7.40;2.65;;;6.70;94.10;;;;;;5119415;27;20057;-79
2022/01/22 09:08:39;;;;;;;11.27;2.80;;;6.60;94.00;;;;;;5102058;27;20394;-78
2022/01/22 09:11:06;;;;;;;11.95;1.80;;;6.70;94.00;;;;;;5101745;27;20126;-79
2022/01/22 09:13:33;;;;;;;10.07;2.10;;;6.70;94.00;;;;;;5118587;27;20043;-78
2022/01/22 09:16:00;;;;;;;16.65;2.70;;;6.70;94.00;;;;;;5118571;27;20079;-78
2022/01/22 09:18:26;;;;;;;14.25;3.17;;;6.70;94.10;;;;;;5118543;27;20039;-79
2022/01/22 09:23:17;;;;;;;9.10;2.40;;;6.70;93.80;;;;;;5101394;27;20039;-79
2022/01/22 09:25:45;;;;;;;10.27;2.03;;;6.80;93.50;;;;;;5101717;27;20031;-78
2022/01/22 09:28:12;;;;;;;16.17;2.95;;;6.70;93.70;;;;;;5118292;27;20050;-79
2022/01/22 09:30:40;;;;;;;10.38;3.65;;;6.80;93.70;;;;;;5118259;27;20702;-79
2022/01/22 09:33:06;;;;;;;10.35;1.88;;;6.80;93.80;;;;;;5118534;27;20498;-78
2022/01/22 09:35:32;;;;;;;13.40;2.58;;;6.80;93.50;;;;;;5118225;27;20043;-78
2022/01/22 09:37:58;;;;;;;9.20;2.28;;;6.90;93.50;;;;;;5118467;27;20084;-78
2022/01/22 09:40:28;;;;;;;13.50;2.45;;;6.90;93.40;;;;;;5101044;27;20148;-78
2022/01/22 09:42:55;;;;;;;9.82;2.42;;;6.90;93.40;;;;;;5118063;27;20075;-78
2022/01/22 09:45:23;;;;;;;9.73;2.78;;;7.00;93.40;;;;;;5118309;27;20478;-79
2022/01/22 09:47:50;;;;;;;11.95;3.13;;;7.00;93.10;;;;;;5117939;27;20046;-78
2022/01/22 09:50:22;;;;;;;11.50;2.95;;;7.00;93.30;;;;;;5118123;27;20062;-78
2022/01/22 09:52:49;;;;;;;11.35;2.90;;;7.00;93.40;;;;;;5100810;27;20039;-78
2022/01/22 09:55:15;;;;;;;14.00;3.17;;;7.00;93.40;;;;;;5100463;27;20042;-78
2022/01/22 09:57:42;;;;;;;12.15;3.17;;;7.00;93.30;;;;;;5100697;27;20039;-79
2022/01/22 10:00:10;;;;;;;12.73;3.10;;;7.00;93.50;;;;;;5117442;27;20083;-80
2022/01/22 10:02:50;;;;;;;10.48;3.10;;;7.00;93.50;;;;;;5117725;27;20039;-78
2022/01/22 10:05:46;;;;;;;14.23;2.95;;;7.00;93.70;;;;;;5117697;27;20031;-78
2022/01/22 10:08:20;;;;;;;13.05;2.80;;;7.00;93.70;;;;;;5088171;27;20079;-78
2022/01/22 10:10:47;;;;;;;14.57;3.10;;;7.00;93.90;;;;;;5117439;27;20043;-79
2022/01/22 10:13:14;;;;;;;7.95;2.75;;;7.00;93.90;;;;;;5100111;27;20096;-78
2022/01/22 10:15:41;;;;;;;14.02;3.10;;;7.10;93.90;;;;;;5100404;27;20126;-79
2022/01/22 10:18:07;;;;;;;14.55;3.10;;;7.10;93.90;;;;;;5100461;27;20045;-78
2022/01/22 10:20:36;;;;;;;23.67;4.45;;;7.00;94.10;;;;;;5100213;27;20039;-78
2022/01/22 10:23:08;;;;;;;15.20;2.83;;;7.10;94.10;;;;;;5117533;27;20042;-79
2022/01/22 10:25:45;;;;;;;20.67;3.78;;;7.10;94.00;;;;;;5117548;27;20035;-78
2022/01/22 10:28:22;;;;;;;8.55;2.58;;;7.10;94.10;;;;;;5100277;27;20126;-78
2022/01/22 10:30:51;;;;;;;12.15;2.13;;;7.10;94.10;;;;;;5134185;27;20084;-79
2022/01/22 10:35:52;;;;;;;15.15;3.42;;;7.20;93.80;;;;;;5117530;27;20078;-80
2022/01/22 10:38:19;;;;;;;10.90;2.60;;;7.10;93.70;;;;;;5134099;27;20432;-79
2022/01/22 10:40:46;;;;;;;11.63;3.38;;;7.10;93.70;;;;;;5099859;27;20043;-80
2022/01/22 10:43:27;;;;;;;8.38;2.47;;;7.10;93.60;;;;;;5116902;27;20035;-80
2022/01/22 10:46:19;;;;;;;5.82;2.40;;;7.10;93.60;;;;;;5117133;27;20564;-79
2022/01/22 10:49:00;;;;;;;27.65;3.65;;;7.20;93.40;;;;;;5099831;27;20043;-79
2022/01/22 10:51:28;;;;;;;12.48;2.47;;;7.10;93.40;;;;;;5116812;27;20456;-79
2022/01/22 10:54:02;;;;;;;11.23;3.35;;;7.10;93.40;;;;;;5116721;27;20205;-79
2022/01/22 10:56:30;;;;;;;6.82;2.30;;;7.20;93.30;;;;;;5117367;27;20483;-79
2022/01/22 10:58:55;;;;;;;7.90;1.95;;;7.20;93.00;;;;;;5133721;27;20033;-79
2022/01/22 11:01:24;;;;;;;7.93;2.13;;;7.30;92.70;;;;;;5133430;27;20047;-79
2022/01/22 11:04:24;;;;;;;8.43;2.28;;;7.20;92.80;;;;;;5116552;27;20075;-79
2022/01/22 11:06:54;;;;;;;11.48;2.42;;;7.20;92.70;;;;;;5115404;27;20142;-79
2022/01/22 11:09:20;;;;;;;7.43;1.83;;;7.30;92.40;;;;;;5099804;27;20031;-80
2022/01/22 11:11:48;;;;;;;12.70;2.58;;;7.30;92.20;;;;;;5099583;27;20047;-79
2022/01/22 11:14:14;;;;;;;5.10;1.90;;;7.30;92.00;;;;;;5116322;27;20043;-80
2022/01/22 11:16:43;;;;;;;8.40;2.67;;;7.30;92.20;;;;;;5116295;27;20047;-79
2022/01/22 11:19:10;;;;;;;18.05;2.38;;;7.30;91.90;;;;;;5116363;27;20050;-80
2022/01/22 11:21:41;;;;;;;10.75;2.00;;;7.30;91.90;;;;;;5116199;27;20103;-79
2022/01/22 11:24:13;;;;;;;15.25;2.40;;;7.20;91.80;;;;;;5099289;27;20039;-80
2022/01/22 11:26:39;;;;;;;3.47;1.58;;;7.20;91.90;;;;;;5099184;27;20039;-79
2022/01/22 11:29:06;;;;;;;7.28;1.63;;;7.30;91.70;;;;;;5099115;27;20546;-81
2022/01/22 11:31:34;;;;;;;8.40;1.90;;;7.20;91.60;;;;;;5133272;27;20045;-81
2022/01/22 11:34:02;;;;;;;6.85;2.17;;;7.20;91.50;;;;;;5099193;27;20035;-80
2022/01/22 11:36:32;;;;;;;9.15;2.13;;;7.20;91.00;;;;;;5099026;27;20078;-79
2022/01/22 11:39:00;;;;;;;9.02;2.00;;;7.20;91.00;;;;;;5115781;27;20051;-79
2022/01/22 11:41:27;;;;;;;7.22;2.33;;;7.20;91.20;;;;;;5115854;27;20084;-79
2022/01/22 11:44:11;;;;;;;8.25;3.13;;;7.30;91.20;;;;;;5115839;27;20122;-79
2022/01/22 11:46:43;;;;;;;5.55;1.80;;;7.30;91.10;;;;;;5115854;27;20532;-79
2022/01/22 11:49:13;;;;;;;8.48;2.05;;;7.30;91.10;;;;;;5115678;27;20039;-79
2022/01/22 11:51:39;;;;;;;8.23;1.70;;;7.30;91.00;;;;;;5132895;27;20043;-80
2022/01/22 11:54:05;;;;;;;10.30;1.65;;;7.30;90.90;;;;;;5115857;27;20047;-79
2022/01/22 11:56:41;;;;;;;6.38;1.52;;;7.30;90.90;;;;;;5098837;27;20046;-80
2022/01/22 11:59:21;;;;;;;15.02;2.33;;;7.30;90.80;;;;;;5116764;28;20038;-80
2022/01/22 12:04:16;;;;;;;8.00;1.67;;;7.30;90.70;;;;;;5115570;28;20041;-79
2022/01/22 12:07:00;;;;;;;8.68;1.50;;;7.30;90.70;;;;;;5115466;28;20046;-79
2022/01/22 12:09:32;;;;;;;5.20;1.58;;;7.30;90.30;;;;;;5132864;28;20039;-80
2022/01/22 12:15:03;;;;;;;5.85;1.55;;;7.40;89.80;;;;;;5115589;28;20135;-80
2022/01/22 12:18:23;;;;;;;6.07;1.50;;;7.30;89.80;;;;;;5118480;27;20043;-80
2022/01/22 12:21:30;;;;;;;4.38;1.42;;;7.40;89.50;;;;;;5117299;27;20087;-81
2022/01/22 12:23:31;;;;;;;7.45;1.55;;;7.40;89.70;;;;;;5119312;27;20092;-80
2022/01/22 12:25:59;;;;;;;7.25;1.33;;;7.40;89.50;;;;;;5102657;27;20039;-80
2022/01/22 12:28:35;;;;;;;6.75;1.10;;;7.30;89.60;;;;;;5119827;27;20035;-80
2022/01/22 12:31:15;;;;;;;10.05;1.33;;;7.40;89.30;;;;;;5102311;27;20071;-80
2022/01/22 12:33:41;;;;;;;4.53;2.00;;;7.30;89.60;;;;;;5102684;27;20055;-80
2022/01/22 12:36:12;;;;;;;3.65;1.17;;;7.30;89.40;;;;;;5136552;27;20046;-79
2022/01/22 12:38:49;;;;;;;8.82;1.25;;;7.30;89.40;;;;;;5119395;27;20117;-80
2022/01/22 12:41:47;;;;;;;9.60;1.33;;;7.30;89.60;;;;;;5103857;27;20506;-81
2022/01/22 12:44:28;;;;;;;8.65;1.42;;;7.30;89.80;;;;;;5119227;27;20510;-81
2022/01/22 12:47:00;;;;;;;3.90;1.13;;;7.30;89.30;;;;;;5102119;27;20073;-81
2022/01/22 12:49:28;;;;;;;4.20;1.02;;;7.30;89.20;;;;;;5102409;27;20035;-81
2022/01/22 12:51:59;;;;;;;7.32;1.85;;;7.30;89.00;;;;;;5085268;27;20047;-80
2022/01/22 12:54:36;;;;;;;5.85;1.13;;;7.30;88.70;;;;;;5118991;27;20483;-80
2022/01/22 12:57:11;;;;;;;5.82;0.98;;;7.40;88.10;;;;;;5102230;27;20096;-81
2022/01/22 13:00:11;;;;;;;5.05;1.20;;;7.40;87.70;;;;;;5118917;27;20039;-80
2022/01/22 13:02:47;;;;;;;5.55;0.90;;;7.40;87.60;;;;;;5135945;27;20055;-81
2022/01/22 13:05:16;;;;;;;5.60;1.10;;;7.30;87.60;;;;;;5102066;27;20038;-81
2022/01/22 13:07:44;;;;;;;5.20;1.08;;;7.30;87.90;;;;;;5118760;27;20035;-81
2022/01/22 13:10:10;;;;;;;5.30;1.30;;;7.30;88.30;;;;;;5084820;27;20050;-80
2022/01/22 13:12:41;;;;;;;9.13;1.90;;;7.30;88.30;;;;;;5101678;27;20039;-81
2022/01/22 13:15:10;;;;;;;4.05;1.15;;;7.30;88.50;;;;;;5119089;27;20039;-81
2022/01/22 13:17:37;;;;;;;4.35;1.20;;;7.30;88.70;;;;;;5101547;27;20039;-80
2022/01/22 13:20:04;;;;;;;7.22;1.90;;;7.30;88.90;;;;;;5101647;27;20119;-80
2022/01/22 13:22:36;;;;;;;5.85;1.30;;;7.30;89.30;;;;;;5101120;27;20043;-81
2022/01/22 13:25:13;;;;;;;6.38;1.70;;;7.10;89.80;;;;;;5118072;27;20547;-80
2022/01/22 13:27:40;;;;;;;5.68;0.90;;;7.10;90.30;;;;;;5118146;27;20088;-80
2022/01/22 13:30:09;;;;;;;9.00;1.00;;;7.10;90.70;;;;;;5101140;27;20039;-81
2022/01/22 13:32:58;;;;;;;6.47;1.20;;;7.00;90.90;;;;;;5101265;27;20035;-81
2022/01/22 13:35:33;;;;;;;4.55;0.98;;;7.00;91.00;;;;;;5135462;27;20526;-81
2022/01/22 13:49:30;;;;;;;5.53;1.20;;;7.00;91.50;;;;;;5117985;27;20046;-81
2022/01/22 13:52:06;;;;;;;6.03;1.20;;;7.00;91.80;;;;;;5101148;27;20104;-80
2022/01/22 13:54:37;;;;;;;6.03;2.38;;;7.00;91.90;;;;;;5135294;27;20042;-80
2022/01/22 13:57:09;;;;;;;5.85;1.33;;;7.00;91.80;;;;;;5117797;27;20047;-81
2022/01/22 13:59:38;;;;;;;8.40;1.73;;;7.00;91.80;;;;;;5100971;27;20061;-81
2022/01/22 14:04:53;;;;;;;6.22;1.40;;;6.90;92.20;;;;;;5117995;27;20035;-81
2022/01/22 14:07:23;;;;;;;6.00;1.63;;;6.90;92.40;;;;;;5100894;27;20104;-81
2022/01/22 14:09:56;;;;;;;5.05;1.35;;;6.90;92.50;;;;;;5134387;27;20043;-80
2022/01/22 14:12:24;;;;;;;6.28;1.10;;;6.90;92.60;;;;;;5134139;27;20548;-80
2022/01/22 14:15:11;;;;;;;7.63;1.40;;;6.80;92.80;;;;;;5116981;27;20035;-81
2022/01/22 14:18:12;;;;;;;7.70;1.70;;;6.80;92.70;;;;;;5098179;27;20083;-80
2022/01/22 14:20:47;;;;;;;14.98;1.33;;;6.80;92.90;;;;;;5114794;27;20080;-80
2022/01/22 14:23:16;;;;;;;7.68;1.42;;;6.80;93.10;;;;;;5097276;27;20031;-80
2022/01/22 14:26:03;;;;;;;5.57;1.30;;;6.80;93.30;;;;;;5116739;27;20034;-80
2022/01/22 14:29:10;;;;;;;7.97;1.48;;;6.80;93.30;;;;;;5096878;28;20043;-80
2022/01/22 14:31:43;;;;;;;7.43;1.25;;;6.80;93.40;;;;;;4976666;28;20049;-81
2022/01/22 14:34:30;;;;;;;6.75;2.38;;;6.80;93.40;;;;;;5066043;28;20101;-81
2022/01/22 14:36:56;;;;;;;10.55;1.63;;;6.80;93.40;;;;;;5079557;28;20047;-81
2022/01/22 14:44:39;;;;;;;7.07;1.55;;;6.70;93.80;;;;;;5097180;28;20040;-80
2022/01/22 14:47:23;;;;;;;4.10;1.25;;;6.70;94.10;;;;;;5080019;28;20071;-81
2022/01/22 14:50:07;;;;;;;6.35;1.50;;;6.70;94.20;;;;;;5080068;28;20552;-81
2022/01/22 14:52:33;;;;;;;6.18;1.50;;;6.60;94.30;;;;;;5096717;28;20036;-81
2022/01/22 14:55:03;;;;;;;4.20;1.30;;;6.60;94.40;;;;;;5096754;28;20075;-83
2022/01/22 14:57:34;;;;;;;12.55;1.25;;;6.60;94.50;;;;;;5080416;28;20193;-82
2022/01/22 15:00:06;;;;;;;8.77;2.55;;;6.60;94.70;;;;;;5097218;28;20043;-81
2022/01/22 15:02:32;;;;;;;7.15;1.60;;;6.60;94.80;;;;;;5095761;28;20081;-82
2022/01/22 15:04:58;;;;;;;6.53;1.40;;;6.60;94.80;;;;;;5094752;28;20475;-82
2022/01/22 15:07:24;;;;;;;9.10;1.90;;;6.60;94.90;;;;;;5094823;28;20122;-79